レイキャビク/ケフラヴィーク の空港の天気 - METARとTAF

ケフラヴィーク国際空港 ( BIKF / KEF ) - アイスランド ケプラヴィーク
飛行場実況気象(Metar)
観測時間11/30 17:00 GMT (11/30 17:00 UTC)
風向・風速南南東 9m/s
視程3000m
天気現象霧雨 雨 もや
全天を覆う雲 雲底高度 240m
気温9℃
湿度100%
気圧989hPa
METARBIKF 301700Z 15018KT 3000 DZRA BR OVC008 09/09 Q0989
過去の天気等 Google飛行場航空写真 Wunderground天気予報

過去48時間のMETAR

飛行場予報(TAF)
発表時間: 11/30 15:03 GMT (11/30 15:03 UTC)
予報対象時間: 30日15時 GMT ~ 1日15時 GMT
風向・風速東南東 11m/s 瞬間風速 16m/s
視程7000m
天気現象弱い雨
全天の8割程度の雲 雲底高度 210m
全天を覆う雲 雲底高度 460m
30日15時 GMT ~ 30日17時 GMT に一時的に
視程800m
天気現象雨霧雨 霧
全天を覆う雲 雲底高度 90m
30日17時 GMT ~ 30日19時 GMT に徐々に
風向・風速南 11m/s 瞬間風速 16m/s
視程10km以上
天気現象弱いしゅう雨
全天の4割程度の雲 雲底高度 370m
全天の8割程度の雲 雲底高度 670m
30日23時 GMT ~ 1日15時 GMT に一時的に
風向・風速南 16m/s 瞬間風速 22m/s
天気現象しゅう雨
全天の8割程度の積乱雲 雲底高度 370m
TAF AMD BIKF 301503Z 3015/0115 12022G32KT 7000 -RA BKN007 OVC015 TX10/3015Z TN04/0109Z
TEMPO 3015/3017 0800 RADZ FG OVC003
BECMG 3017/3019 18022G32KT 9999 -SHRA SCT012 BKN022
TEMPO 3023/0115 18032G43KT SHRA BKN012CB